Time;durP1;ratioP1;P1;durP2;ratioP2;P2;SDS_P1;SDS_P2;PMS_P1;PMS_P2;Temp;Humidity;BMP_temperature;BMP_pressure;BME280_temperature;BME280_humidity;BME280_pressure;Samples;Min_cycle;Max_cycle;Signal;HPM_P1;HPM_P2
2023/03/26 00:01:22;;;;;;;1.10;0.30;;;15.70;28.60;;;;;;6211857;23;20469;-79
2023/03/26 00:03:53;;;;;;;0.75;0.10;;;15.60;28.90;;;;;;6212336;23;20370;-80
2023/03/26 00:06:23;;;;;;;0.20;0.10;;;15.50;29.30;;;;;;6211690;23;20371;-79
2023/03/26 00:08:51;;;;;;;1.00;0.10;;;15.40;29.20;;;;;;6210907;23;20434;-79
2023/03/26 00:11:20;;;;;;;1.00;0.20;;;15.40;28.80;;;;;;6211714;23;20741;-79
2023/03/26 00:13:48;;;;;;;0.20;0.10;;;15.40;29.20;;;;;;6210626;23;20375;-79
2023/03/26 00:16:18;;;;;;;0.20;0.17;;;15.40;29.20;;;;;;6212009;23;20386;-79
2023/03/26 00:18:46;;;;;;;1.70;0.20;;;15.30;29.40;;;;;;6211480;23;20370;-80
2023/03/26 00:21:15;;;;;;;1.38;0.20;;;15.30;29.60;;;;;;6211464;23;20362;-79
2023/03/26 00:23:43;;;;;;;0.40;0.20;;;15.30;29.60;;;;;;6212022;23;20381;-80
2023/03/26 00:26:10;;;;;;;0.50;0.13;;;15.20;29.70;;;;;;6210356;23;20363;-80
2023/03/26 00:28:41;;;;;;;0.47;0.20;;;15.20;29.80;;;;;;6211843;23;20371;-80
2023/03/26 00:31:11;;;;;;;1.15;0.20;;;15.10;29.90;;;;;;6210715;23;20461;-80
2023/03/26 00:33:39;;;;;;;1.08;0.22;;;15.10;30.00;;;;;;6211981;23;20386;-80
2023/03/26 00:36:10;;;;;;;0.45;0.25;;;15.10;30.40;;;;;;6210759;23;20966;-79
2023/03/26 00:38:38;;;;;;;0.50;0.20;;;15.00;30.20;;;;;;6211679;23;20450;-80
2023/03/26 00:41:07;;;;;;;0.30;0.10;;;15.00;30.50;;;;;;6210189;23;20371;-79
2023/03/26 00:43:35;;;;;;;0.80;0.20;;;14.80;30.80;;;;;;6210655;23;20375;-80
2023/03/26 00:46:02;;;;;;;0.40;0.20;;;14.70;31.20;;;;;;6210443;23;20690;-80
2023/03/26 00:48:29;;;;;;;0.55;0.10;;;14.60;31.60;;;;;;6211669;23;20394;-80
2023/03/26 00:51:14;;;;;;;0.75;0.17;;;14.50;31.30;;;;;;6210717;23;20852;-80
2023/03/26 00:53:46;;;;;;;1.20;0.10;;;14.50;31.70;;;;;;6211629;23;20370;-80
2023/03/26 00:56:13;;;;;;;0.30;0.20;;;14.40;31.80;;;;;;6211302;23;20689;-79
2023/03/26 00:58:40;;;;;;;0.20;0.10;;;14.20;32.30;;;;;;6211281;23;20406;-79
2023/03/26 01:01:13;;;;;;;0.30;0.20;;;14.10;32.20;;;;;;6210808;23;20920;-78
2023/03/26 07:56:07;;;;;;;2.42;0.52;;;13.20;42.70;;;;;;6206912;22;20372;-79
2023/03/26 07:59:11;;;;;;;0.75;0.45;;;13.20;43.40;;;;;;6240961;22;20372;-79
2023/03/26 08:01:50;;;;;;;0.80;0.50;;;13.40;40.80;;;;;;6242142;23;20365;-78
2023/03/26 08:04:54;;;;;;;1.20;0.55;;;13.40;41.00;;;;;;6240844;22;20373;-78
2023/03/26 08:08:01;;;;;;;0.57;0.40;;;13.50;40.30;;;;;;6242200;22;20384;-81
2023/03/26 08:10:40;;;;;;;1.00;0.45;;;13.60;41.10;;;;;;6242341;22;20373;-80
2023/03/26 08:13:30;;;;;;;0.98;0.50;;;13.70;39.80;;;;;;6242049;23;20369;-78
2023/03/26 08:16:19;;;;;;;0.70;0.32;;;13.70;40.70;;;;;;6242086;22;20428;-80
2023/03/26 08:19:09;;;;;;;1.02;0.57;;;13.80;40.40;;;;;;6243415;22;20680;-78
2023/03/26 08:22:11;;;;;;;0.67;0.30;;;13.90;40.20;;;;;;6243669;22;20369;-78
2023/03/26 08:25:12;;;;;;;0.47;0.40;;;14.10;40.60;;;;;;6241519;22;20392;-79
2023/03/26 08:28:00;;;;;;;0.68;0.38;;;14.10;39.90;;;;;;6235770;22;20419;-79
2023/03/26 08:30:27;;;;;;;1.60;0.40;;;14.20;40.60;;;;;;6241053;23;20408;-79
2023/03/26 08:33:03;;;;;;;0.85;0.35;;;14.20;40.40;;;;;;6240042;22;20890;-78
2023/03/26 08:35:31;;;;;;;0.77;0.40;;;14.20;39.30;;;;;;6242609;23;20691;-79
2023/03/26 08:37:58;;;;;;;1.60;0.30;;;14.20;39.70;;;;;;6240924;22;20383;-78
2023/03/26 08:40:43;;;;;;;0.50;0.30;;;14.30;40.00;;;;;;6216659;23;20373;-80
2023/03/26 08:43:24;;;;;;;0.75;0.45;;;14.30;40.00;;;;;;6241465;22;20419;-79
2023/03/26 08:46:24;;;;;;;1.20;0.50;;;14.40;40.40;;;;;;6239994;22;20680;-80
2023/03/26 08:49:26;;;;;;;1.17;0.40;;;14.60;41.00;;;;;;6239839;22;20373;-79
2023/03/26 08:52:14;;;;;;;0.93;0.40;;;14.70;40.60;;;;;;6240084;22;20384;-78
2023/03/26 08:55:05;;;;;;;1.27;0.75;;;14.90;41.00;;;;;;6240428;23;20434;-79
2023/03/26 08:58:07;;;;;;;1.80;0.70;;;15.10;40.30;;;;;;6240143;22;20365;-79
2023/03/26 09:01:05;;;;;;;2.30;0.80;;;15.20;41.20;;;;;;6240615;23;20856;-78
2023/03/26 09:03:57;;;;;;;2.85;0.88;;;15.10;40.40;;;;;;6239566;22;20437;-78
2023/03/26 09:06:35;;;;;;;1.80;0.75;;;15.20;41.80;;;;;;6240529;22;20372;-79
2023/03/26 09:09:35;;;;;;;1.50;0.90;;;15.30;42.70;;;;;;6240818;23;20442;-79
2023/03/26 09:12:23;;;;;;;1.50;1.10;;;15.50;41.90;;;;;;6240031;23;21104;-79
2023/03/26 09:14:54;;;;;;;1.55;1.00;;;15.70;42.60;;;;;;6239731;22;20677;-79
2023/03/26 09:17:36;;;;;;;1.92;1.10;;;15.80;43.10;;;;;;6240675;23;20372;-79
2023/03/26 09:20:58;;;;;;;1.70;0.93;;;15.90;43.00;;;;;;6241153;22;20369;-78
2023/03/26 09:23:27;;;;;;;1.90;0.90;;;16.10;42.30;;;;;;6066063;23;20448;-79
2023/03/26 09:26:09;;;;;;;2.65;1.83;;;16.10;41.90;;;;;;6213843;23;20442;-79
2023/03/26 09:29:43;;;;;;;3.50;1.83;;;16.40;44.10;;;;;;6240294;22;20392;-79
2023/03/26 09:32:24;;;;;;;2.35;1.70;;;16.50;44.50;;;;;;6061433;23;20383;-80
2023/03/26 09:34:56;;;;;;;3.38;2.58;;;16.70;43.40;;;;;;6223989;22;20373;-79
2023/03/26 09:37:48;;;;;;;3.83;2.20;;;16.70;44.00;;;;;;6238369;23;20377;-79
2023/03/26 09:40:44;;;;;;;3.15;1.92;;;16.70;42.60;;;;;;6241105;22;20668;-78
2023/03/26 09:43:54;;;;;;;2.92;2.60;;;16.50;42.60;;;;;;6242124;22;20360;-80
2023/03/26 09:47:02;;;;;;;3.90;2.07;;;16.40;44.80;;;;;;6242597;22;20699;-79
2023/03/26 09:49:45;;;;;;;3.25;2.50;;;16.20;44.60;;;;;;6184373;23;21841;-78
2023/03/26 09:52:23;;;;;;;4.87;3.03;;;16.20;46.10;;;;;;6241287;22;20455;-79
2023/03/26 09:55:11;;;;;;;5.38;4.22;;;15.90;48.20;;;;;;6242594;23;20377;-79
2023/03/26 09:58:14;;;;;;;6.57;5.22;;;15.80;51.70;;;;;;6242332;23;20423;-79
2023/03/26 10:01:04;;;;;;;11.80;5.28;;;15.70;52.00;;;;;;6241621;22;20837;-78
2023/03/26 10:03:44;;;;;;;9.27;5.40;;;15.60;53.00;;;;;;6241593;22;20403;-81
2023/03/26 10:06:14;;;;;;;7.50;5.20;;;15.60;53.50;;;;;;6242709;23;20447;-80
2023/03/26 10:08:53;;;;;;;9.93;5.22;;;15.50;53.70;;;;;;6241473;22;20702;-79
2023/03/26 10:11:32;;;;;;;7.72;5.50;;;15.50;54.70;;;;;;6241287;22;20758;-78
2023/03/26 10:14:04;;;;;;;7.25;4.60;;;15.50;55.10;;;;;;6242352;23;20364;-78
2023/03/26 10:16:50;;;;;;;6.53;4.35;;;15.50;54.80;;;;;;6241601;22;20377;-81
2023/03/26 10:19:17;;;;;;;6.50;4.90;;;15.60;54.00;;;;;;6242549;23;20913;-78
2023/03/26 10:21:50;;;;;;;5.03;3.70;;;15.70;54.50;;;;;;6241985;22;20743;-78
2023/03/26 10:24:54;;;;;;;4.47;3.30;;;16.00;52.70;;;;;;6242458;23;20442;-77
2023/03/26 10:27:30;;;;;;;6.77;4.40;;;16.20;51.80;;;;;;6242831;22;20387;-81
2023/03/26 10:30:22;;;;;;;6.28;3.85;;;16.40;51.90;;;;;;6241249;22;20385;-79
2023/03/26 10:32:52;;;;;;;5.90;3.87;;;16.50;50.50;;;;;;6241784;23;20428;-79
2023/03/26 10:35:35;;;;;;;8.67;6.33;;;16.60;50.30;;;;;;6241563;22;20375;-80
2023/03/26 10:38:17;;;;;;;7.72;3.50;;;16.50;50.80;;;;;;6242816;22;20384;-79
2023/03/26 10:40:53;;;;;;;6.90;5.03;;;16.40;51.70;;;;;;6241831;23;20365;-79
2023/03/26 10:43:26;;;;;;;10.68;6.22;;;16.40;51.80;;;;;;6241383;22;20734;-79
2023/03/26 10:46:01;;;;;;;8.95;6.20;;;16.20;52.30;;;;;;6241943;23;20369;-79
2023/03/26 10:48:43;;;;;;;9.30;5.70;;;16.10;53.60;;;;;;6241443;22;20369;-81
2023/03/26 10:51:28;;;;;;;8.40;4.38;;;15.90;54.00;;;;;;6241150;22;20373;-79
2023/03/26 10:54:13;;;;;;;8.65;4.93;;;15.80;54.60;;;;;;6241548;23;20388;-79
2023/03/26 10:56:48;;;;;;;7.15;4.20;;;15.70;55.40;;;;;;6240206;23;20365;-79
2023/03/26 10:59:17;;;;;;;10.93;5.00;;;15.70;55.60;;;;;;6240997;22;20842;-78
2023/03/26 11:02:04;;;;;;;12.05;6.15;;;15.60;56.90;;;;;;6243617;22;20380;-79
2023/03/26 11:05:06;;;;;;;10.05;5.32;;;15.50;59.60;;;;;;6240883;22;20377;-80
2023/03/26 11:07:52;;;;;;;8.40;5.65;;;15.60;60.80;;;;;;6240772;22;20400;-79
2023/03/26 11:10:20;;;;;;;11.82;4.93;;;15.60;60.50;;;;;;6240928;22;20427;-78
2023/03/26 11:12:56;;;;;;;11.32;5.60;;;15.50;61.30;;;;;;6241710;23;20416;-79
2023/03/26 11:15:26;;;;;;;10.27;5.07;;;15.50;62.70;;;;;;6240315;22;20372;-79
2023/03/26 11:18:12;;;;;;;9.65;4.78;;;15.40;62.70;;;;;;6241349;23;20373;-79
2023/03/26 11:20:44;;;;;;;9.77;5.13;;;15.30;63.40;;;;;;6242486;22;20368;-79
2023/03/26 11:23:37;;;;;;;13.15;6.50;;;15.40;64.60;;;;;;6241349;23;20377;-79
2023/03/26 11:26:22;;;;;;;11.75;6.57;;;15.40;63.50;;;;;;6242207;22;20434;-78
2023/03/26 11:29:13;;;;;;;10.80;7.15;;;15.50;62.20;;;;;;6242111;22;20443;-78
2023/03/26 11:32:04;;;;;;;2.63;1.30;;;15.40;61.70;;;;;;6240609;22;20464;-79
2023/03/26 11:34:59;;;;;;;8.70;6.10;;;15.50;58.70;;;;;;6242220;22;20376;-79
2023/03/26 11:37:34;;;;;;;10.50;7.50;;;15.50;58.20;;;;;;6240545;22;20393;-79
2023/03/26 11:40:10;;;;;;;6.22;3.33;;;15.50;60.30;;;;;;6241652;23;20373;-79
2023/03/26 11:42:37;;;;;;;9.25;3.53;;;15.40;59.80;;;;;;6240193;22;20368;-78
2023/03/26 11:45:13;;;;;;;9.07;3.70;;;15.40;63.90;;;;;;6241298;23;20369;-81
2023/03/26 11:48:06;;;;;;;6.80;2.22;;;15.40;65.30;;;;;;6240446;22;20369;-79
2023/03/26 11:50:39;;;;;;;10.50;3.85;;;15.30;60.70;;;;;;6240227;22;20389;-79
2023/03/26 11:53:12;;;;;;;10.15;4.28;;;15.10;72.20;;;;;;6241228;23;20851;-79
2023/03/26 11:56:04;;;;;;;13.90;4.43;;;15.00;77.20;;;;;;6239794;22;20365;-79
2023/03/26 11:59:06;;;;;;;10.40;4.00;;;14.90;79.70;;;;;;6239983;22;20436;-79
2023/03/26 12:01:57;;;;;;;9.23;4.00;;;14.80;83.10;;;;;;6184393;22;20444;-80
2023/03/26 12:04:34;;;;;;;10.75;4.65;;;14.80;82.40;;;;;;6220037;22;20388;-80
2023/03/26 12:07:30;;;;;;;12.75;3.90;;;14.90;84.80;;;;;;6240911;23;20376;-80
2023/03/26 12:10:00;;;;;;;5.32;2.33;;;15.00;80.80;;;;;;6240301;22;20372;-80
2023/03/26 12:12:46;;;;;;;5.55;2.10;;;15.10;71.30;;;;;;6240273;22;20384;-80
2023/03/26 12:15:19;;;;;;;5.43;1.92;;;15.00;65.50;;;;;;6240666;23;20419;-79
2023/03/26 12:17:50;;;;;;;4.35;1.55;;;15.10;63.90;;;;;;6240164;22;20442;-80
2023/03/26 12:20:26;;;;;;;6.25;1.65;;;15.20;65.00;;;;;;6240520;23;20830;-80
2023/03/26 12:23:01;;;;;;;3.65;1.23;;;15.30;64.70;;;;;;6239841;22;20749;-81
2023/03/26 12:25:30;;;;;;;3.78;1.23;;;15.40;63.70;;;;;;6242776;22;20411;-80
2023/03/26 12:28:12;;;;;;;4.35;1.38;;;15.40;60.30;;;;;;6239506;22;20365;-79
2023/03/26 12:31:01;;;;;;;3.47;1.27;;;15.10;59.30;;;;;;6239943;22;20403;-79
2023/03/26 12:33:33;;;;;;;3.00;1.13;;;14.90;62.60;;;;;;6241135;23;20372;-79
2023/03/26 12:36:25;;;;;;;5.15;1.25;;;14.90;63.30;;;;;;6240208;22;20399;-79
2023/03/26 12:38:52;;;;;;;2.88;1.10;;;14.80;62.50;;;;;;6239802;22;20373;-80
2023/03/26 12:41:40;;;;;;;3.80;0.98;;;14.90;63.50;;;;;;6239963;22;20838;-80
2023/03/26 12:44:32;;;;;;;3.83;1.10;;;14.90;61.80;;;;;;6241762;22;20454;-79
2023/03/26 12:47:29;;;;;;;3.28;1.33;;;15.10;61.30;;;;;;6240222;22;20707;-81
2023/03/26 12:50:16;;;;;;;2.05;0.95;;;15.20;60.70;;;;;;6238050;22;20365;-79
2023/03/26 12:53:36;;;;;;;2.50;0.93;;;15.40;59.50;;;;;;6218572;22;20377;-81
2023/03/26 12:56:35;;;;;;;4.82;1.10;;;15.60;58.60;;;;;;6234478;22;20714;-79
2023/03/26 12:59:11;;;;;;;3.17;1.27;;;15.60;56.50;;;;;;6230227;22;20380;-79
2023/03/26 13:02:02;;;;;;;2.58;0.90;;;15.50;55.10;;;;;;6240859;23;20392;-80
2023/03/26 13:04:38;;;;;;;4.07;1.35;;;15.50;56.40;;;;;;6239888;22;20388;-79
2023/03/26 13:07:12;;;;;;;4.55;1.25;;;15.50;56.60;;;;;;6240870;23;20380;-78
2023/03/26 13:10:21;;;;;;;2.78;1.23;;;15.70;57.00;;;;;;6239474;22;20882;-79
2023/03/26 13:13:27;;;;;;;2.88;1.35;;;15.80;57.10;;;;;;6191045;22;20455;-79
2023/03/26 13:16:02;;;;;;;3.43;1.53;;;15.80;56.50;;;;;;6240013;23;20364;-79
2023/03/26 13:18:44;;;;;;;6.50;2.65;;;15.70;55.80;;;;;;6214442;22;20774;-80
2023/03/26 13:21:21;;;;;;;3.63;1.60;;;15.50;56.50;;;;;;6241958;22;20423;-78
2023/03/26 13:24:13;;;;;;;3.42;1.30;;;15.60;56.90;;;;;;6240279;22;20397;-80
2023/03/26 13:27:02;;;;;;;3.28;1.65;;;15.60;58.30;;;;;;6241455;22;20750;-78
2023/03/26 13:30:10;;;;;;;3.40;0.93;;;15.50;57.60;;;;;;6240453;23;20399;-79
2023/03/26 13:32:57;;;;;;;3.13;2.03;;;15.50;58.30;;;;;;6239313;22;20703;-79
2023/03/26 13:35:58;;;;;;;4.47;1.55;;;15.50;58.10;;;;;;6239114;22;20377;-78
2023/03/26 13:39:03;;;;;;;4.38;2.15;;;15.40;58.10;;;;;;6239951;22;20917;-78
2023/03/26 13:41:42;;;;;;;2.00;0.98;;;15.40;58.60;;;;;;6240479;22;20373;-78
2023/03/26 13:44:28;;;;;;;4.03;1.10;;;15.50;58.10;;;;;;6240531;23;20419;-79
2023/03/26 13:47:03;;;;;;;3.78;0.85;;;15.50;57.50;;;;;;6239938;22;20451;-79
2023/03/26 13:49:39;;;;;;;6.43;3.28;;;15.50;56.40;;;;;;6240577;23;20767;-79
2023/03/26 13:52:23;;;;;;;3.80;1.60;;;15.50;56.90;;;;;;6239593;22;20365;-79
2023/03/26 13:55:28;;;;;;;2.47;0.70;;;15.60;56.50;;;;;;6239379;22;20396;-79
2023/03/26 13:58:19;;;;;;;4.53;2.92;;;15.70;55.60;;;;;;6240213;22;20696;-78
2023/03/26 14:01:01;;;;;;;3.40;1.25;;;15.70;56.10;;;;;;6239841;22;20389;-79
2023/03/26 14:03:54;;;;;;;2.27;1.03;;;15.60;56.90;;;;;;6240775;23;20384;-78
2023/03/26 14:06:45;;;;;;;3.10;1.20;;;15.50;56.80;;;;;;6241501;22;20361;-80
2023/03/26 14:09:35;;;;;;;4.78;1.35;;;15.50;57.50;;;;;;6239688;22;20427;-80
2023/03/26 14:12:23;;;;;;;4.40;1.30;;;15.40;57.60;;;;;;6224375;22;20676;-78
2023/03/26 14:15:03;;;;;;;3.70;1.30;;;15.20;58.00;;;;;;6240048;23;20444;-80
2023/03/26 14:17:46;;;;;;;4.93;1.75;;;15.20;59.00;;;;;;6239431;22;20365;-78
2023/03/26 14:20:31;;;;;;;2.92;1.30;;;15.20;58.60;;;;;;6238507;22;20361;-79
2023/03/26 14:23:01;;;;;;;2.70;1.20;;;15.20;59.70;;;;;;6240416;23;20415;-79
2023/03/26 14:25:37;;;;;;;2.15;1.20;;;15.30;59.30;;;;;;6239441;22;20364;-79
2023/03/26 14:28:42;;;;;;;3.97;1.38;;;15.30;59.40;;;;;;6242206;23;20369;-79
2023/03/26 14:31:45;;;;;;;6.85;3.70;;;15.20;59.10;;;;;;6196077;23;20786;-78
2023/03/26 14:34:44;;;;;;;4.93;1.98;;;15.10;58.80;;;;;;6238896;22;20377;-78
2023/03/26 14:37:28;;;;;;;4.00;1.77;;;15.20;60.10;;;;;;6241219;22;20377;-79
2023/03/26 14:40:25;;;;;;;4.22;1.92;;;15.30;59.10;;;;;;6240846;22;20442;-79
2023/03/26 14:42:57;;;;;;;3.30;1.30;;;15.30;58.60;;;;;;6240863;22;20377;-80
2023/03/26 14:45:35;;;;;;;3.75;1.50;;;15.30;58.80;;;;;;6242012;23;20365;-79
2023/03/26 14:48:27;;;;;;;3.55;1.45;;;15.30;59.60;;;;;;6241524;22;20738;-78
2023/03/26 14:51:09;;;;;;;4.53;1.30;;;15.40;59.70;;;;;;6241282;22;20862;-80
2023/03/26 14:53:41;;;;;;;3.42;1.50;;;15.40;59.40;;;;;;6241771;23;20577;-79
2023/03/26 14:56:42;;;;;;;5.23;1.40;;;15.40;58.90;;;;;;6241134;22;20377;-78
2023/03/26 14:59:21;;;;;;;3.88;1.23;;;15.50;58.20;;;;;;6241415;22;20765;-79
2023/03/26 15:02:10;;;;;;;3.38;1.10;;;15.40;59.20;;;;;;6241712;23;20839;-80
2023/03/26 15:04:58;;;;;;;5.90;2.05;;;15.50;60.00;;;;;;6240769;22;20419;-81
2023/03/26 15:07:31;;;;;;;4.15;1.52;;;15.40;59.50;;;;;;6240616;22;20380;-80
2023/03/26 15:10:14;;;;;;;3.47;1.48;;;15.50;59.10;;;;;;6241613;23;20365;-80
2023/03/26 15:12:59;;;;;;;3.47;1.40;;;15.60;59.40;;;;;;6240554;23;20408;-80
2023/03/26 15:15:39;;;;;;;17.15;7.40;;;15.60;59.90;;;;;;6240464;22;20373;-81
2023/03/26 15:18:56;;;;;;;4.50;1.90;;;15.80;58.90;;;;;;6241383;23;20373;-79
2023/03/26 15:22:00;;;;;;;4.32;1.60;;;15.90;56.40;;;;;;6240946;22;20381;-79
2023/03/26 15:24:58;;;;;;;3.58;1.40;;;15.80;56.90;;;;;;6241261;23;20373;-79
2023/03/26 15:28:07;;;;;;;8.27;2.90;;;15.70;57.10;;;;;;6240761;22;20746;-80
2023/03/26 15:31:10;;;;;;;5.88;2.17;;;15.70;56.30;;;;;;6241142;22;20460;-79
2023/03/26 15:34:26;;;;;;;5.10;1.80;;;15.70;57.10;;;;;;6241219;23;20426;-80
2023/03/26 15:36:59;;;;;;;3.28;1.50;;;15.60;58.00;;;;;;6239407;22;20368;-79
2023/03/26 15:40:07;;;;;;;8.15;1.80;;;15.70;58.00;;;;;;6241112;23;20369;-79
2023/03/26 15:42:51;;;;;;;4.45;1.60;;;15.60;59.90;;;;;;6090554;23;20783;-78
2023/03/26 15:45:39;;;;;;;4.95;2.10;;;15.50;60.30;;;;;;6233780;22;20429;-80
2023/03/26 15:48:06;;;;;;;7.47;1.65;;;15.30;60.90;;;;;;6241830;23;20393;-80
2023/03/26 15:50:56;;;;;;;5.78;0.20;;;15.20;53.00;;;;;;6240486;22;20427;-79
2023/03/26 15:53:42;;;;;;;0.88;0.10;;;15.10;48.50;;;;;;6240551;22;20460;-79
2023/03/26 15:56:22;;;;;;;0.70;0.03;;;14.80;48.90;;;;;;6241613;23;20376;-79
2023/03/26 15:59:13;;;;;;;0.17;0.10;;;14.60;49.00;;;;;;6240595;22;20369;-79
2023/03/26 16:02:10;;;;;;;0.10;0.03;;;14.50;48.90;;;;;;6239684;22;20529;-79
2023/03/26 16:04:47;;;;;;;0.70;0.10;;;14.40;48.40;;;;;;6240598;22;20369;-79
2023/03/26 16:07:50;;;;;;;3.20;0.40;;;14.40;48.50;;;;;;6241659;23;20424;-79
2023/03/26 16:10:28;;;;;;;0.68;0.05;;;14.90;45.30;;;;;;6215073;23;20393;-79
2023/03/26 16:13:33;;;;;;;0.20;0.00;;;15.60;43.60;;;;;;6240684;22;20792;-80
2023/03/26 16:16:03;;;;;;;0.20;0.00;;;16.30;41.80;;;;;;6240283;22;20373;-79
2023/03/26 16:18:31;;;;;;;0.93;0.05;;;16.80;38.90;;;;;;6240261;23;20369;-79
2023/03/26 16:21:27;;;;;;;0.75;0.17;;;17.00;37.00;;;;;;6240007;22;20448;-79
2023/03/26 16:24:06;;;;;;;0.30;0.00;;;16.90;38.60;;;;;;6240729;22;20373;-79
2023/03/26 16:26:45;;;;;;;0.40;0.20;;;16.80;38.30;;;;;;6240867;23;20365;-79
2023/03/26 16:29:29;;;;;;;0.00;0.00;;;16.80;36.80;;;;;;6240235;22;20389;-79
2023/03/26 16:32:15;;;;;;;0.10;0.00;;;16.70;37.50;;;;;;6240321;22;20404;-79
2023/03/26 16:35:08;;;;;;;0.50;0.20;;;16.90;36.80;;;;;;6240845;23;20373;-81
2023/03/26 16:37:42;;;;;;;2.65;0.98;;;16.90;38.10;;;;;;6237248;22;20453;-80
2023/03/26 16:40:15;;;;;;;1.10;0.38;;;17.10;42.90;;;;;;6241539;23;20372;-79
2023/03/26 16:43:19;;;;;;;0.30;0.10;;;17.10;37.50;;;;;;6240088;22;20369;-80
2023/03/26 16:45:55;;;;;;;0.28;0.13;;;17.10;36.80;;;;;;6240274;23;20419;-79
2023/03/26 16:48:34;;;;;;;1.17;0.50;;;17.10;36.60;;;;;;6239943;22;20493;-80
2023/03/26 16:51:30;;;;;;;0.60;0.20;;;16.90;39.30;;;;;;6242721;22;20365;-79
2023/03/26 16:54:25;;;;;;;1.33;0.30;;;16.60;37.50;;;;;;6239972;23;20365;-79
2023/03/26 16:57:23;;;;;;;2.40;0.50;;;16.30;38.80;;;;;;6239753;22;20886;-77
2023/03/26 17:00:23;;;;;;;2.38;0.20;;;16.20;40.50;;;;;;6240404;22;20748;-84
2023/03/26 17:03:16;;;;;;;1.05;0.30;;;15.90;39.50;;;;;;6195058;22;20395;-83
2023/03/26 17:06:02;;;;;;;0.60;0.10;;;15.50;40.30;;;;;;6240204;22;20399;-82
2023/03/26 17:08:58;;;;;;;0.20;0.10;;;15.30;40.10;;;;;;6241551;23;20707;-85
2023/03/26 17:11:42;;;;;;;0.80;0.30;;;15.00;40.80;;;;;;6222341;22;20376;-82
2023/03/26 17:14:21;;;;;;;0.50;0.10;;;14.60;42.60;;;;;;6240421;22;20373;-84
2023/03/26 17:17:03;;;;;;;0.30;0.20;;;14.30;41.80;;;;;;6241391;23;20838;-82
2023/03/26 17:19:46;;;;;;;0.68;0.30;;;14.20;43.10;;;;;;6240496;23;20391;-82
2023/03/26 17:22:23;;;;;;;0.38;0.10;;;14.00;44.20;;;;;;6240302;22;20369;-82
2023/03/26 17:25:22;;;;;;;0.20;0.10;;;13.80;44.00;;;;;;6241804;23;20431;-85
2023/03/26 17:28:12;;;;;;;0.17;0.10;;;13.70;42.80;;;;;;6241021;23;20373;-83
2023/03/26 17:31:03;;;;;;;0.60;0.10;;;13.70;42.40;;;;;;6240521;22;20424;-84
2023/03/26 17:33:35;;;;;;;0.30;0.10;;;13.70;42.60;;;;;;6240190;22;20377;-83
2023/03/26 17:36:11;;;;;;;0.10;0.10;;;13.60;42.90;;;;;;6241859;23;20386;-84
2023/03/26 17:38:38;;;;;;;0.70;0.10;;;13.60;41.10;;;;;;6240864;22;20371;-84
2023/03/26 17:41:06;;;;;;;0.10;0.00;;;13.60;43.10;;;;;;6242196;22;20393;-83
2023/03/26 17:43:51;;;;;;;0.30;0.20;;;13.50;41.60;;;;;;6241649;22;20377;-84
2023/03/26 17:46:36;;;;;;;0.20;0.10;;;13.50;43.50;;;;;;6241449;23;20372;-83
2023/03/26 17:49:23;;;;;;;0.13;0.10;;;13.30;43.80;;;;;;6240764;23;20865;-85
2023/03/26 17:51:55;;;;;;;0.50;0.17;;;13.20;44.30;;;;;;6240317;22;20407;-82
2023/03/26 17:54:40;;;;;;;0.13;0.13;;;13.20;43.40;;;;;;6241412;22;20377;-81
2023/03/26 17:57:28;;;;;;;0.95;0.10;;;13.10;43.50;;;;;;6240537;23;20743;-83
2023/03/26 17:59:57;;;;;;;0.32;0.10;;;13.10;43.50;;;;;;6240639;22;20391;-82
2023/03/26 18:02:41;;;;;;;0.30;0.10;;;13.00;43.80;;;;;;6242828;23;20423;-83
2023/03/26 18:05:15;;;;;;;0.10;0.10;;;13.00;44.10;;;;;;6244327;22;20371;-82
2023/03/26 18:08:06;;;;;;;0.20;0.10;;;12.90;44.10;;;;;;6245125;22;20360;-84
2023/03/26 18:10:38;;;;;;;0.10;0.10;;;12.80;43.00;;;;;;6242524;22;28840;-83
2023/03/26 18:13:17;;;;;;;0.20;0.05;;;12.90;43.50;;;;;;6243056;23;20381;-82
2023/03/26 18:15:47;;;;;;;0.15;0.10;;;12.80;43.70;;;;;;6242884;23;20415;-83
2023/03/26 18:18:41;;;;;;;0.50;0.10;;;12.80;43.60;;;;;;6243018;23;20442;-83
2023/03/26 18:21:15;;;;;;;0.25;0.10;;;12.80;43.30;;;;;;6220750;22;20384;-82
2023/03/26 18:23:47;;;;;;;0.45;0.10;;;12.70;43.20;;;;;;6244404;22;20400;-82
2023/03/26 18:26:18;;;;;;;0.50;0.10;;;12.70;43.60;;;;;;6243020;22;20365;-83
2023/03/26 18:28:52;;;;;;;0.10;0.10;;;12.70;43.30;;;;;;6243537;23;20684;-85
2023/03/26 18:31:23;;;;;;;0.17;0.10;;;12.70;44.20;;;;;;6242508;22;20434;-83
2023/03/26 18:33:57;;;;;;;0.30;0.10;;;12.60;43.10;;;;;;6242598;23;20476;-82
2023/03/26 18:36:29;;;;;;;0.50;0.10;;;12.60;42.60;;;;;;6242170;23;20415;-83
2023/03/26 18:38:59;;;;;;;0.13;0.08;;;12.70;42.70;;;;;;6242833;23;20750;-85
2023/03/26 18:41:40;;;;;;;0.40;0.10;;;12.60;43.10;;;;;;6242321;22;20400;-82
2023/03/26 18:44:17;;;;;;;0.50;0.20;;;12.60;43.00;;;;;;6242030;22;20393;-83
2023/03/26 18:46:44;;;;;;;0.45;0.10;;;12.60;43.00;;;;;;6242922;23;20369;-85
2023/03/26 18:49:14;;;;;;;0.65;0.10;;;12.50;43.10;;;;;;6243680;22;20393;-83
2023/03/26 18:51:42;;;;;;;0.60;0.10;;;12.50;43.40;;;;;;6242643;23;20473;-81
2023/03/26 18:54:23;;;;;;;0.40;0.10;;;12.40;43.40;;;;;;6241974;22;20377;-83
2023/03/26 18:56:51;;;;;;;0.93;0.15;;;12.40;43.10;;;;;;6243068;23;20435;-82
2023/03/26 18:59:30;;;;;;;0.88;0.35;;;12.40;43.20;;;;;;6241936;22;20369;-82
2023/03/26 19:02:09;;;;;;;0.30;0.20;;;12.40;43.40;;;;;;6242651;23;20365;-82
2023/03/26 19:04:37;;;;;;;0.45;0.10;;;12.40;44.00;;;;;;6243653;22;20714;-82
2023/03/26 19:07:12;;;;;;;2.30;0.10;;;12.30;43.90;;;;;;6244037;22;20408;-83
2023/03/26 19:09:41;;;;;;;1.08;0.10;;;12.40;43.90;;;;;;6242247;22;20368;-83
2023/03/26 19:12:21;;;;;;;2.57;0.20;;;12.30;43.70;;;;;;6242131;23;20369;-80
2023/03/26 19:15:02;;;;;;;3.78;0.50;;;12.30;42.40;;;;;;6240410;22;20373;-82
2023/03/26 19:17:37;;;;;;;0.80;0.17;;;12.30;43.50;;;;;;6242939;22;20368;-81
2023/03/26 19:20:12;;;;;;;0.40;0.20;;;12.30;43.70;;;;;;6241876;23;20385;-84
2023/03/26 19:22:41;;;;;;;1.58;0.10;;;12.20;44.10;;;;;;6243261;22;20373;-81
2023/03/26 19:25:19;;;;;;;1.13;0.20;;;12.20;43.50;;;;;;6242516;23;20373;-80
2023/03/26 19:27:49;;;;;;;1.40;0.10;;;12.20;42.90;;;;;;6241394;22;20431;-82
2023/03/26 19:30:38;;;;;;;1.77;0.30;;;12.20;42.00;;;;;;6242333;23;20715;-82
2023/03/26 19:33:17;;;;;;;3.33;0.20;;;12.20;41.50;;;;;;6241617;22;20420;-84
2023/03/26 19:35:50;;;;;;;0.15;0.10;;;12.30;41.00;;;;;;6241258;22;20707;-81
2023/03/26 19:38:28;;;;;;;1.25;0.10;;;12.30;42.00;;;;;;6242211;23;20746;-82
2023/03/26 19:40:56;;;;;;;1.00;0.20;;;12.30;41.40;;;;;;6241325;22;20405;-83
2023/03/26 19:43:25;;;;;;;0.23;0.10;;;12.20;41.80;;;;;;6241999;23;20427;-83
2023/03/26 19:45:53;;;;;;;0.95;0.10;;;12.20;42.00;;;;;;6242398;22;20399;-82
2023/03/26 19:48:32;;;;;;;0.90;0.20;;;12.10;41.70;;;;;;6242533;23;20369;-83
2023/03/26 19:51:19;;;;;;;1.10;0.20;;;12.20;42.20;;;;;;6242335;22;20369;-82
2023/03/26 19:53:57;;;;;;;1.95;0.30;;;12.30;40.70;;;;;;6241886;23;20379;-82
2023/03/26 19:56:24;;;;;;;0.73;0.10;;;12.40;40.10;;;;;;6241151;22;20786;-82
2023/03/26 19:58:51;;;;;;;0.45;0.10;;;12.30;39.60;;;;;;6242860;22;20373;-84
2023/03/26 20:01:25;;;;;;;0.25;0.10;;;12.40;38.60;;;;;;6242748;22;20750;-81
2023/03/26 20:03:59;;;;;;;0.35;0.10;;;12.50;37.90;;;;;;6217062;23;20761;-83
2023/03/26 20:06:30;;;;;;;0.57;0.10;;;12.60;38.30;;;;;;6242355;22;20468;-82
2023/03/26 20:09:11;;;;;;;0.30;0.10;;;12.60;38.40;;;;;;6241161;22;20373;-82
2023/03/26 20:11:39;;;;;;;0.30;0.20;;;12.60;39.60;;;;;;6241973;23;20739;-83
2023/03/26 20:14:25;;;;;;;0.30;0.10;;;12.60;38.70;;;;;;6240285;22;20376;-82
2023/03/26 20:16:52;;;;;;;1.20;0.10;;;12.50;39.20;;;;;;6242025;23;20361;-82
2023/03/26 20:19:19;;;;;;;0.20;0.10;;;12.50;38.90;;;;;;6240794;22;20766;-82
2023/03/26 20:21:46;;;;;;;1.02;0.25;;;12.50;39.10;;;;;;6242405;23;20364;-83
2023/03/26 20:24:16;;;;;;;0.60;0.30;;;12.40;38.90;;;;;;6242329;22;20771;-82
2023/03/26 20:26:46;;;;;;;0.50;0.10;;;12.50;39.10;;;;;;6242537;23;20369;-82
2023/03/26 20:29:14;;;;;;;0.28;0.10;;;12.50;38.90;;;;;;6240403;22;20762;-83
2023/03/26 20:31:42;;;;;;;0.10;0.10;;;12.40;39.30;;;;;;6241589;23;20436;-81
2023/03/26 20:34:18;;;;;;;0.80;0.10;;;12.40;38.90;;;;;;6215864;22;20847;-82
2023/03/26 20:36:45;;;;;;;0.95;0.20;;;12.30;39.10;;;;;;6241750;23;20711;-82
2023/03/26 20:39:13;;;;;;;0.30;0.10;;;12.30;38.90;;;;;;6240663;22;20879;-83
2023/03/26 20:41:47;;;;;;;0.60;0.20;;;12.30;39.00;;;;;;6241547;23;20365;-82
2023/03/26 20:44:19;;;;;;;0.45;0.20;;;12.30;39.00;;;;;;6241194;22;20377;-82
2023/03/26 20:46:48;;;;;;;0.38;0.20;;;12.30;38.60;;;;;;6241087;23;20431;-82
2023/03/26 20:49:16;;;;;;;0.20;0.20;;;12.30;38.10;;;;;;6240786;22;20766;-82
2023/03/26 20:51:45;;;;;;;0.40;0.10;;;12.30;37.90;;;;;;6241495;23;20374;-83
2023/03/26 20:54:19;;;;;;;0.20;0.10;;;12.40;37.70;;;;;;6240952;22;20411;-82